sensor_id;sensor_type;location;lat;lon;timestamp;temperature;humidity
7694;DHT22;3889;48.162;11.510;2022-11-20T00:00:54;6.00;99.90
7694;DHT22;3889;48.162;11.510;2022-11-20T00:03:23;6.10;99.90
7694;DHT22;3889;48.162;11.510;2022-11-20T00:05:51;6.10;99.90
7694;DHT22;3889;48.162;11.510;2022-11-20T00:08:18;6.10;99.90
7694;DHT22;3889;48.162;11.510;2022-11-20T00:10:48;6.10;99.90
7694;DHT22;3889;48.162;11.510;2022-11-20T00:13:16;6.10;99.90
7694;DHT22;3889;48.162;11.510;2022-11-20T00:15:43;6.10;99.90
7694;DHT22;3889;48.162;11.510;2022-11-20T00:18:11;6.10;99.90
7694;DHT22;3889;48.162;11.510;2022-11-20T00:20:39;6.10;99.90
7694;DHT22;3889;48.162;11.510;2022-11-20T00:23:07;6.00;99.90
7694;DHT22;3889;48.162;11.510;2022-11-20T00:25:35;6.10;99.90
7694;DHT22;3889;48.162;11.510;2022-11-20T00:28:04;6.00;99.90
7694;DHT22;3889;48.162;11.510;2022-11-20T00:30:32;6.10;99.90
7694;DHT22;3889;48.162;11.510;2022-11-20T00:33:00;6.10;99.90
7694;DHT22;3889;48.162;11.510;2022-11-20T00:35:27;6.00;99.90
7694;DHT22;3889;48.162;11.510;2022-11-20T00:37:55;6.10;99.90
7694;DHT22;3889;48.162;11.510;2022-11-20T00:40:23;6.10;99.90
7694;DHT22;3889;48.162;11.510;2022-11-20T00:42:51;6.00;99.90
7694;DHT22;3889;48.162;11.510;2022-11-20T00:45:20;6.10;99.90
7694;DHT22;3889;48.162;11.510;2022-11-20T00:47:48;6.10;99.90
7694;DHT22;3889;48.162;11.510;2022-11-20T00:50:16;6.10;99.90
7694;DHT22;3889;48.162;11.510;2022-11-20T00:52:43;6.10;99.90
7694;DHT22;3889;48.162;11.510;2022-11-20T00:55:11;6.10;99.90
7694;DHT22;3889;48.162;11.510;2022-11-20T00:57:39;6.10;99.90
7694;DHT22;3889;48.162;11.510;2022-11-20T01:00:08;6.10;99.90
7694;DHT22;3889;48.162;11.510;2022-11-20T01:02:37;6.00;99.90
7694;DHT22;3889;48.162;11.510;2022-11-20T01:05:05;6.00;99.90
7694;DHT22;3889;48.162;11.510;2022-11-20T01:07:33;6.00;99.90
7694;DHT22;3889;48.162;11.510;2022-11-20T01:10:01;6.00;99.90
7694;DHT22;3889;48.162;11.510;2022-11-20T01:12:30;6.00;99.90
7694;DHT22;3889;48.162;11.510;2022-11-20T01:14:58;6.00;99.90
7694;DHT22;3889;48.162;11.510;2022-11-20T01:17:26;6.00;99.90
7694;DHT22;3889;48.162;11.510;2022-11-20T01:19:55;6.00;99.90
7694;DHT22;3889;48.162;11.510;2022-11-20T01:22:23;6.00;99.90
7694;DHT22;3889;48.162;11.510;2022-11-20T01:24:51;6.00;99.90
7694;DHT22;3889;48.162;11.510;2022-11-20T01:27:19;6.10;99.90
7694;DHT22;3889;48.162;11.510;2022-11-20T01:29:46;6.00;99.90
7694;DHT22;3889;48.162;11.510;2022-11-20T01:32:14;6.10;99.90
7694;DHT22;3889;48.162;11.510;2022-11-20T01:34:42;6.10;99.90
7694;DHT22;3889;48.162;11.510;2022-11-20T01:37:11;6.10;99.90
7694;DHT22;3889;48.162;11.510;2022-11-20T01:39:39;6.10;99.90
7694;DHT22;3889;48.162;11.510;2022-11-20T01:42:07;6.20;99.90
7694;DHT22;3889;48.162;11.510;2022-11-20T01:44:54;6.20;99.90
7694;DHT22;3889;48.162;11.510;2022-11-20T01:47:31;6.20;99.90
7694;DHT22;3889;48.162;11.510;2022-11-20T01:50:09;6.20;99.90
7694;DHT22;3889;48.162;11.510;2022-11-20T01:52:42;6.10;99.90
7694;DHT22;3889;48.162;11.510;2022-11-20T01:55:14;6.20;99.90
7694;DHT22;3889;48.162;11.510;2022-11-20T01:57:44;6.20;99.90
7694;DHT22;3889;48.162;11.510;2022-11-20T02:00:15;6.20;99.90
7694;DHT22;3889;48.162;11.510;2022-11-20T02:02:46;6.20;99.90
7694;DHT22;3889;48.162;11.510;2022-11-20T02:05:22;6.20;99.90
7694;DHT22;3889;48.162;11.510;2022-11-20T02:07:52;6.20;99.90
7694;DHT22;3889;48.162;11.510;2022-11-20T02:10:21;6.10;99.90
7694;DHT22;3889;48.162;11.510;2022-11-20T02:12:49;6.10;99.90
7694;DHT22;3889;48.162;11.510;2022-11-20T02:15:34;6.10;99.90
7694;DHT22;3889;48.162;11.510;2022-11-20T02:18:02;6.10;99.90
7694;DHT22;3889;48.162;11.510;2022-11-20T02:20:30;6.10;99.90
7694;DHT22;3889;48.162;11.510;2022-11-20T02:23:05;6.10;99.90
7694;DHT22;3889;48.162;11.510;2022-11-20T02:25:38;6.10;99.90
7694;DHT22;3889;48.162;11.510;2022-11-20T02:28:07;6.00;99.90
7694;DHT22;3889;48.162;11.510;2022-11-20T02:30:35;6.00;99.90
7694;DHT22;3889;48.162;11.510;2022-11-20T02:33:03;6.00;99.90
7694;DHT22;3889;48.162;11.510;2022-11-20T02:35:43;6.00;99.90
7694;DHT22;3889;48.162;11.510;2022-11-20T02:38:11;6.00;99.90
7694;DHT22;3889;48.162;11.510;2022-11-20T02:40:40;6.10;99.90
7694;DHT22;3889;48.162;11.510;2022-11-20T02:43:08;6.10;99.90
7694;DHT22;3889;48.162;11.510;2022-11-20T02:45:36;6.10;99.90
7694;DHT22;3889;48.162;11.510;2022-11-20T02:48:06;6.10;99.90
7694;DHT22;3889;48.162;11.510;2022-11-20T02:50:37;6.10;99.90
7694;DHT22;3889;48.162;11.510;2022-11-20T02:53:05;6.10;99.90
7694;DHT22;3889;48.162;11.510;2022-11-20T02:55:33;6.10;99.90
7694;DHT22;3889;48.162;11.510;2022-11-20T02:58:02;6.20;99.90
7694;DHT22;3889;48.162;11.510;2022-11-20T03:00:30;6.20;99.90
7694;DHT22;3889;48.162;11.510;2022-11-20T03:02:58;6.10;99.90
7694;DHT22;3889;48.162;11.510;2022-11-20T03:05:26;6.10;99.90
7694;DHT22;3889;48.162;11.510;2022-11-20T03:07:54;6.10;99.90
7694;DHT22;3889;48.162;11.510;2022-11-20T03:10:21;6.10;99.90
7694;DHT22;3889;48.162;11.510;2022-11-20T03:12:53;6.10;99.90
7694;DHT22;3889;48.162;11.510;2022-11-20T03:15:22;6.10;99.90
7694;DHT22;3889;48.162;11.510;2022-11-20T03:17:53;6.10;99.90
7694;DHT22;3889;48.162;11.510;2022-11-20T03:20:21;6.10;99.90
7694;DHT22;3889;48.162;11.510;2022-11-20T03:22:49;6.10;99.90
7694;DHT22;3889;48.162;11.510;2022-11-20T03:25:17;6.00;99.90
7694;DHT22;3889;48.162;11.510;2022-11-20T03:27:45;6.00;99.90
7694;DHT22;3889;48.162;11.510;2022-11-20T03:30:13;6.10;99.90
7694;DHT22;3889;48.162;11.510;2022-11-20T03:32:42;6.00;99.90
7694;DHT22;3889;48.162;11.510;2022-11-20T03:35:10;6.10;99.90
7694;DHT22;3889;48.162;11.510;2022-11-20T03:37:38;6.10;99.90
7694;DHT22;3889;48.162;11.510;2022-11-20T03:40:07;6.10;99.90
7694;DHT22;3889;48.162;11.510;2022-11-20T03:42:35;6.10;99.90
7694;DHT22;3889;48.162;11.510;2022-11-20T03:45:15;6.00;99.90
7694;DHT22;3889;48.162;11.510;2022-11-20T03:47:45;6.00;99.90
7694;DHT22;3889;48.162;11.510;2022-11-20T03:50:13;6.00;99.90
7694;DHT22;3889;48.162;11.510;2022-11-20T03:52:41;6.10;99.90
7694;DHT22;3889;48.162;11.510;2022-11-20T03:55:09;6.00;99.90
7694;DHT22;3889;48.162;11.510;2022-11-20T03:57:37;6.00;99.90
7694;DHT22;3889;48.162;11.510;2022-11-20T04:00:06;6.00;99.90
7694;DHT22;3889;48.162;11.510;2022-11-20T04:02:34;6.00;99.90
7694;DHT22;3889;48.162;11.510;2022-11-20T04:05:03;6.00;99.90
7694;DHT22;3889;48.162;11.510;2022-11-20T04:07:33;6.00;99.90
7694;DHT22;3889;48.162;11.510;2022-11-20T04:10:02;6.00;99.90
7694;DHT22;3889;48.162;11.510;2022-11-20T04:12:32;6.00;99.90
7694;DHT22;3889;48.162;11.510;2022-11-20T04:15:00;6.00;99.90
7694;DHT22;3889;48.162;11.510;2022-11-20T04:17:28;6.00;99.90
7694;DHT22;3889;48.162;11.510;2022-11-20T04:19:56;6.00;99.90
7694;DHT22;3889;48.162;11.510;2022-11-20T04:22:25;6.00;99.90
7694;DHT22;3889;48.162;11.510;2022-11-20T04:24:53;6.00;99.90
7694;DHT22;3889;48.162;11.510;2022-11-20T04:27:21;6.00;99.90
7694;DHT22;3889;48.162;11.510;2022-11-20T04:29:49;6.00;99.90
7694;DHT22;3889;48.162;11.510;2022-11-20T04:32:16;6.00;99.90
7694;DHT22;3889;48.162;11.510;2022-11-20T04:34:44;6.10;99.90
7694;DHT22;3889;48.162;11.510;2022-11-20T04:37:12;6.10;99.90
7694;DHT22;3889;48.162;11.510;2022-11-20T04:39:41;6.00;99.90
7694;DHT22;3889;48.162;11.510;2022-11-20T04:42:09;6.10;99.90
7694;DHT22;3889;48.162;11.510;2022-11-20T04:44:56;6.10;99.90
7694;DHT22;3889;48.162;11.510;2022-11-20T04:47:24;6.10;99.90
7694;DHT22;3889;48.162;11.510;2022-11-20T04:49:52;6.10;99.90
7694;DHT22;3889;48.162;11.510;2022-11-20T04:52:20;6.10;99.90
7694;DHT22;3889;48.162;11.510;2022-11-20T04:54:49;6.10;99.90
7694;DHT22;3889;48.162;11.510;2022-11-20T04:57:19;6.10;99.90
7694;DHT22;3889;48.162;11.510;2022-11-20T04:59:47;6.00;99.90
7694;DHT22;3889;48.162;11.510;2022-11-20T05:02:15;6.00;99.90
7694;DHT22;3889;48.162;11.510;2022-11-20T05:04:42;6.00;99.90
7694;DHT22;3889;48.162;11.510;2022-11-20T05:07:10;6.00;99.90
7694;DHT22;3889;48.162;11.510;2022-11-20T05:09:38;5.90;99.90
7694;DHT22;3889;48.162;11.510;2022-11-20T05:12:08;6.00;99.90
7694;DHT22;3889;48.162;11.510;2022-11-20T05:14:36;5.90;99.90
7694;DHT22;3889;48.162;11.510;2022-11-20T05:17:04;6.00;99.90
7694;DHT22;3889;48.162;11.510;2022-11-20T05:19:32;6.00;99.90
7694;DHT22;3889;48.162;11.510;2022-11-20T05:22:00;6.00;99.90
7694;DHT22;3889;48.162;11.510;2022-11-20T05:24:28;5.90;99.90
7694;DHT22;3889;48.162;11.510;2022-11-20T05:26:56;5.90;99.90
7694;DHT22;3889;48.162;11.510;2022-11-20T05:29:25;5.90;99.90
7694;DHT22;3889;48.162;11.510;2022-11-20T05:31:53;5.90;99.90
7694;DHT22;3889;48.162;11.510;2022-11-20T05:34:20;5.90;99.90
7694;DHT22;3889;48.162;11.510;2022-11-20T05:36:48;5.80;99.90
7694;DHT22;3889;48.162;11.510;2022-11-20T05:39:16;5.90;99.90
7694;DHT22;3889;48.162;11.510;2022-11-20T05:41:45;5.90;99.90
7694;DHT22;3889;48.162;11.510;2022-11-20T05:44:13;5.90;99.90
7694;DHT22;3889;48.162;11.510;2022-11-20T05:46:42;5.90;99.90
7694;DHT22;3889;48.162;11.510;2022-11-20T05:49:10;5.90;99.90
7694;DHT22;3889;48.162;11.510;2022-11-20T05:51:37;5.90;99.90
7694;DHT22;3889;48.162;11.510;2022-11-20T05:54:05;6.00;99.90
7694;DHT22;3889;48.162;11.510;2022-11-20T05:56:33;6.00;99.90
7694;DHT22;3889;48.162;11.510;2022-11-20T05:59:01;5.90;99.90
7694;DHT22;3889;48.162;11.510;2022-11-20T06:01:29;5.90;99.90
7694;DHT22;3889;48.162;11.510;2022-11-20T06:03:58;6.00;99.90
7694;DHT22;3889;48.162;11.510;2022-11-20T06:06:26;6.00;99.90
7694;DHT22;3889;48.162;11.510;2022-11-20T06:08:54;6.00;99.90
7694;DHT22;3889;48.162;11.510;2022-11-20T06:11:22;5.90;99.90
7694;DHT22;3889;48.162;11.510;2022-11-20T06:13:50;5.90;99.90
7694;DHT22;3889;48.162;11.510;2022-11-20T06:16:19;5.80;99.90
7694;DHT22;3889;48.162;11.510;2022-11-20T06:18:48;5.80;99.90
7694;DHT22;3889;48.162;11.510;2022-11-20T06:21:18;5.70;99.90
7694;DHT22;3889;48.162;11.510;2022-11-20T06:23:46;5.70;99.90
7694;DHT22;3889;48.162;11.510;2022-11-20T06:26:16;5.60;99.90
7694;DHT22;3889;48.162;11.510;2022-11-20T06:28:45;5.50;99.90
7694;DHT22;3889;48.162;11.510;2022-11-20T06:31:15;5.40;99.90
7694;DHT22;3889;48.162;11.510;2022-11-20T06:33:44;5.30;99.90
7694;DHT22;3889;48.162;11.510;2022-11-20T06:36:14;5.30;99.90
7694;DHT22;3889;48.162;11.510;2022-11-20T06:38:43;5.40;99.90
7694;DHT22;3889;48.162;11.510;2022-11-20T06:41:13;5.40;99.90
7694;DHT22;3889;48.162;11.510;2022-11-20T06:43:41;5.40;99.90
7694;DHT22;3889;48.162;11.510;2022-11-20T06:46:11;5.40;99.90
7694;DHT22;3889;48.162;11.510;2022-11-20T06:48:39;5.40;99.90
7694;DHT22;3889;48.162;11.510;2022-11-20T06:51:07;5.50;99.90
7694;DHT22;3889;48.162;11.510;2022-11-20T06:53:36;5.50;99.90
7694;DHT22;3889;48.162;11.510;2022-11-20T06:56:06;5.60;99.90
7694;DHT22;3889;48.162;11.510;2022-11-20T06:58:35;5.60;99.90
7694;DHT22;3889;48.162;11.510;2022-11-20T07:01:04;5.70;99.90
7694;DHT22;3889;48.162;11.510;2022-11-20T07:03:33;5.80;99.90
7694;DHT22;3889;48.162;11.510;2022-11-20T07:06:01;5.80;99.90
7694;DHT22;3889;48.162;11.510;2022-11-20T07:08:30;5.90;99.90
7694;DHT22;3889;48.162;11.510;2022-11-20T07:10:59;5.90;99.90
7694;DHT22;3889;48.162;11.510;2022-11-20T07:13:29;5.90;99.90
7694;DHT22;3889;48.162;11.510;2022-11-20T07:15:59;5.90;99.90
7694;DHT22;3889;48.162;11.510;2022-11-20T07:18:28;5.90;99.90
7694;DHT22;3889;48.162;11.510;2022-11-20T07:20:56;6.00;99.90
7694;DHT22;3889;48.162;11.510;2022-11-20T07:23:23;6.00;99.90
7694;DHT22;3889;48.162;11.510;2022-11-20T07:25:51;6.00;99.90
7694;DHT22;3889;48.162;11.510;2022-11-20T07:28:19;6.00;99.90
7694;DHT22;3889;48.162;11.510;2022-11-20T07:30:51;6.00;99.90
7694;DHT22;3889;48.162;11.510;2022-11-20T07:33:19;6.10;99.90
7694;DHT22;3889;48.162;11.510;2022-11-20T07:35:47;6.10;99.90
7694;DHT22;3889;48.162;11.510;2022-11-20T07:38:15;6.20;99.90
7694;DHT22;3889;48.162;11.510;2022-11-20T07:40:43;6.20;99.90
7694;DHT22;3889;48.162;11.510;2022-11-20T07:43:10;6.20;99.90
7694;DHT22;3889;48.162;11.510;2022-11-20T07:45:38;6.30;99.90
7694;DHT22;3889;48.162;11.510;2022-11-20T07:48:07;6.30;99.90
7694;DHT22;3889;48.162;11.510;2022-11-20T07:50:35;6.30;99.90
7694;DHT22;3889;48.162;11.510;2022-11-20T07:53:04;6.30;99.90
7694;DHT22;3889;48.162;11.510;2022-11-20T07:55:32;6.30;99.90
7694;DHT22;3889;48.162;11.510;2022-11-20T07:58:00;6.40;99.90
7694;DHT22;3889;48.162;11.510;2022-11-20T08:00:28;6.40;99.90
7694;DHT22;3889;48.162;11.510;2022-11-20T08:02:56;6.30;99.90
7694;DHT22;3889;48.162;11.510;2022-11-20T08:05:25;6.40;99.90
7694;DHT22;3889;48.162;11.510;2022-11-20T08:07:53;6.40;99.90
7694;DHT22;3889;48.162;11.510;2022-11-20T08:10:21;6.40;99.90
7694;DHT22;3889;48.162;11.510;2022-11-20T08:12:50;6.50;99.90
7694;DHT22;3889;48.162;11.510;2022-11-20T08:15:36;6.40;99.90
7694;DHT22;3889;48.162;11.510;2022-11-20T08:18:06;6.50;99.90
7694;DHT22;3889;48.162;11.510;2022-11-20T08:20:55;6.50;99.90
7694;DHT22;3889;48.162;11.510;2022-11-20T08:23:23;6.60;99.90
7694;DHT22;3889;48.162;11.510;2022-11-20T08:25:51;6.60;99.90
7694;DHT22;3889;48.162;11.510;2022-11-20T08:28:19;6.40;99.90
7694;DHT22;3889;48.162;11.510;2022-11-20T08:30:48;6.50;99.90
7694;DHT22;3889;48.162;11.510;2022-11-20T08:33:16;6.60;99.90
7694;DHT22;3889;48.162;11.510;2022-11-20T08:35:45;6.50;99.90
7694;DHT22;3889;48.162;11.510;2022-11-20T08:38:14;6.70;99.90
7694;DHT22;3889;48.162;11.510;2022-11-20T08:40:42;6.80;99.90
7694;DHT22;3889;48.162;11.510;2022-11-20T08:43:31;6.90;99.90
7694;DHT22;3889;48.162;11.510;2022-11-20T08:46:00;6.90;99.90
7694;DHT22;3889;48.162;11.510;2022-11-20T08:48:27;7.00;99.90
7694;DHT22;3889;48.162;11.510;2022-11-20T08:50:58;7.10;99.90
7694;DHT22;3889;48.162;11.510;2022-11-20T08:53:27;7.10;99.90
7694;DHT22;3889;48.162;11.510;2022-11-20T08:55:56;7.10;99.90
7694;DHT22;3889;48.162;11.510;2022-11-20T08:58:25;7.10;99.90
7694;DHT22;3889;48.162;11.510;2022-11-20T09:00:53;7.10;99.90
7694;DHT22;3889;48.162;11.510;2022-11-20T09:03:21;7.10;99.90
7694;DHT22;3889;48.162;11.510;2022-11-20T09:05:48;7.10;99.90
7694;DHT22;3889;48.162;11.510;2022-11-20T09:08:17;7.10;99.90
7694;DHT22;3889;48.162;11.510;2022-11-20T09:10:46;7.10;99.90
7694;DHT22;3889;48.162;11.510;2022-11-20T09:13:18;7.20;99.90
7694;DHT22;3889;48.162;11.510;2022-11-20T09:15:46;7.30;99.90
7694;DHT22;3889;48.162;11.510;2022-11-20T09:18:14;7.20;99.90
7694;DHT22;3889;48.162;11.510;2022-11-20T09:20:42;7.30;99.90
7694;DHT22;3889;48.162;11.510;2022-11-20T09:23:10;7.30;99.90
7694;DHT22;3889;48.162;11.510;2022-11-20T09:25:38;7.40;99.90
7694;DHT22;3889;48.162;11.510;2022-11-20T09:28:07;7.40;99.90
7694;DHT22;3889;48.162;11.510;2022-11-20T09:30:36;7.40;99.90
7694;DHT22;3889;48.162;11.510;2022-11-20T09:33:04;7.40;99.90
7694;DHT22;3889;48.162;11.510;2022-11-20T09:35:33;7.50;99.90
7694;DHT22;3889;48.162;11.510;2022-11-20T09:38:05;7.40;99.90
7694;DHT22;3889;48.162;11.510;2022-11-20T09:40:35;7.50;99.90
7694;DHT22;3889;48.162;11.510;2022-11-20T09:43:12;7.60;99.90
7694;DHT22;3889;48.162;11.510;2022-11-20T09:45:50;7.60;99.90
7694;DHT22;3889;48.162;11.510;2022-11-20T09:48:36;7.50;99.90
7694;DHT22;3889;48.162;11.510;2022-11-20T09:51:16;7.60;99.90
7694;DHT22;3889;48.162;11.510;2022-11-20T09:53:52;7.70;99.90
7694;DHT22;3889;48.162;11.510;2022-11-20T09:56:25;7.80;99.90
7694;DHT22;3889;48.162;11.510;2022-11-20T09:58:59;8.00;99.90
7694;DHT22;3889;48.162;11.510;2022-11-20T10:01:31;8.10;99.90
7694;DHT22;3889;48.162;11.510;2022-11-20T10:04:02;8.20;99.90
7694;DHT22;3889;48.162;11.510;2022-11-20T10:06:32;8.30;99.90
7694;DHT22;3889;48.162;11.510;2022-11-20T10:09:08;8.40;99.90
7694;DHT22;3889;48.162;11.510;2022-11-20T10:11:51;8.50;99.90
7694;DHT22;3889;48.162;11.510;2022-11-20T10:14:28;8.50;99.90
7694;DHT22;3889;48.162;11.510;2022-11-20T10:17:03;8.50;99.90
7694;DHT22;3889;48.162;11.510;2022-11-20T10:19:56;8.60;99.90
7694;DHT22;3889;48.162;11.510;2022-11-20T10:22:36;8.40;99.90
7694;DHT22;3889;48.162;11.510;2022-11-20T10:25:08;8.20;99.90
7694;DHT22;3889;48.162;11.510;2022-11-20T10:28:00;8.10;99.90
7694;DHT22;3889;48.162;11.510;2022-11-20T10:30:38;8.30;99.90
7694;DHT22;3889;48.162;11.510;2022-11-20T10:33:13;8.40;99.90
7694;DHT22;3889;48.162;11.510;2022-11-20T10:35:45;8.40;99.90
7694;DHT22;3889;48.162;11.510;2022-11-20T10:38:18;8.40;99.90
7694;DHT22;3889;48.162;11.510;2022-11-20T10:40:51;8.40;99.90
7694;DHT22;3889;48.162;11.510;2022-11-20T10:43:26;8.50;99.90
7694;DHT22;3889;48.162;11.510;2022-11-20T10:46:00;8.50;99.90
7694;DHT22;3889;48.162;11.510;2022-11-20T10:48:31;8.50;99.90
7694;DHT22;3889;48.162;11.510;2022-11-20T10:51:10;8.50;99.90
7694;DHT22;3889;48.162;11.510;2022-11-20T10:53:51;8.50;99.90
7694;DHT22;3889;48.162;11.510;2022-11-20T10:56:25;8.60;99.90
7694;DHT22;3889;48.162;11.510;2022-11-20T11:01:51;8.50;99.90
7694;DHT22;3889;48.162;11.510;2022-11-20T11:04:33;8.40;99.90
7694;DHT22;3889;48.162;11.510;2022-11-20T11:07:09;8.40;99.90
7694;DHT22;3889;48.162;11.510;2022-11-20T11:09:41;8.40;99.90
7694;DHT22;3889;48.162;11.510;2022-11-20T11:12:10;8.40;99.90
7694;DHT22;3889;48.162;11.510;2022-11-20T11:14:43;8.30;99.90
7694;DHT22;3889;48.162;11.510;2022-11-20T11:17:24;8.30;99.90
7694;DHT22;3889;48.162;11.510;2022-11-20T11:20:01;8.30;99.90
7694;DHT22;3889;48.162;11.510;2022-11-20T11:22:32;8.40;99.90
7694;DHT22;3889;48.162;11.510;2022-11-20T11:25:00;8.50;99.90
7694;DHT22;3889;48.162;11.510;2022-11-20T11:27:28;8.60;99.90
7694;DHT22;3889;48.162;11.510;2022-11-20T11:30:13;8.60;99.90
7694;DHT22;3889;48.162;11.510;2022-11-20T11:32:42;8.70;99.90
7694;DHT22;3889;48.162;11.510;2022-11-20T11:35:23;8.80;99.90
7694;DHT22;3889;48.162;11.510;2022-11-20T11:37:52;8.90;99.90
7694;DHT22;3889;48.162;11.510;2022-11-20T11:40:22;9.00;99.90
7694;DHT22;3889;48.162;11.510;2022-11-20T11:42:56;8.80;99.90
7694;DHT22;3889;48.162;11.510;2022-11-20T11:45:25;8.70;99.90
7694;DHT22;3889;48.162;11.510;2022-11-20T11:47:56;8.50;99.90
7694;DHT22;3889;48.162;11.510;2022-11-20T11:50:25;8.30;99.90
7694;DHT22;3889;48.162;11.510;2022-11-20T11:53:03;8.30;99.90
7694;DHT22;3889;48.162;11.510;2022-11-20T11:55:38;8.20;99.90
7694;DHT22;3889;48.162;11.510;2022-11-20T11:58:16;8.20;99.90
7694;DHT22;3889;48.162;11.510;2022-11-20T12:00:54;8.20;99.90
7694;DHT22;3889;48.162;11.510;2022-11-20T12:03:27;8.30;99.90
7694;DHT22;3889;48.162;11.510;2022-11-20T12:05:59;8.30;99.90
7694;DHT22;3889;48.162;11.510;2022-11-20T12:08:32;8.10;99.90
7694;DHT22;3889;48.162;11.510;2022-11-20T12:11:11;7.80;99.90
7694;DHT22;3889;48.162;11.510;2022-11-20T12:13:44;7.60;99.90
7694;DHT22;3889;48.162;11.510;2022-11-20T12:16:16;7.40;99.90
7694;DHT22;3889;48.162;11.510;2022-11-20T12:18:48;7.20;99.90
7694;DHT22;3889;48.162;11.510;2022-11-20T12:21:20;7.30;99.90
7694;DHT22;3889;48.162;11.510;2022-11-20T12:24:23;7.20;99.90
7694;DHT22;3889;48.162;11.510;2022-11-20T12:27:05;7.30;99.90
7694;DHT22;3889;48.162;11.510;2022-11-20T12:29:46;7.50;99.90
7694;DHT22;3889;48.162;11.510;2022-11-20T12:32:38;7.40;99.90
7694;DHT22;3889;48.162;11.510;2022-11-20T12:35:23;7.50;99.90
7694;DHT22;3889;48.162;11.510;2022-11-20T12:38:13;7.60;99.90
7694;DHT22;3889;48.162;11.510;2022-11-20T12:40:53;7.60;99.90
7694;DHT22;3889;48.162;11.510;2022-11-20T12:43:24;7.60;99.90
7694;DHT22;3889;48.162;11.510;2022-11-20T12:46:18;7.60;99.90
7694;DHT22;3889;48.162;11.510;2022-11-20T12:49:02;7.80;99.90
7694;DHT22;3889;48.162;11.510;2022-11-20T12:52:04;7.90;99.90
7694;DHT22;3889;48.162;11.510;2022-11-20T12:54:50;7.80;99.90
7694;DHT22;3889;48.162;11.510;2022-11-20T12:57:24;7.70;99.90
7694;DHT22;3889;48.162;11.510;2022-11-20T13:00:08;7.60;99.90
7694;DHT22;3889;48.162;11.510;2022-11-20T13:05:49;7.50;99.90
7694;DHT22;3889;48.162;11.510;2022-11-20T13:08:22;7.60;99.90
7694;DHT22;3889;48.162;11.510;2022-11-20T13:10:56;7.50;99.90
7694;DHT22;3889;48.162;11.510;2022-11-20T13:13:35;7.30;99.90
7694;DHT22;3889;48.162;11.510;2022-11-20T13:16:08;7.40;99.90
7694;DHT22;3889;48.162;11.510;2022-11-20T13:18:40;7.50;99.90
7694;DHT22;3889;48.162;11.510;2022-11-20T13:21:16;7.40;99.90
7694;DHT22;3889;48.162;11.510;2022-11-20T13:23:45;7.40;99.90
7694;DHT22;3889;48.162;11.510;2022-11-20T13:26:23;7.30;99.90
7694;DHT22;3889;48.162;11.510;2022-11-20T13:29:02;7.10;99.90
7694;DHT22;3889;48.162;11.510;2022-11-20T13:31:36;7.10;99.90
7694;DHT22;3889;48.162;11.510;2022-11-20T13:34:12;7.00;99.90
7694;DHT22;3889;48.162;11.510;2022-11-20T13:36:49;6.90;99.90
7694;DHT22;3889;48.162;11.510;2022-11-20T13:39:26;7.10;99.90
7694;DHT22;3889;48.162;11.510;2022-11-20T13:41:55;7.20;99.90
7694;DHT22;3889;48.162;11.510;2022-11-20T13:44:27;7.20;99.90
7694;DHT22;3889;48.162;11.510;2022-11-20T13:46:56;7.20;99.90
7694;DHT22;3889;48.162;11.510;2022-11-20T13:49:26;7.20;99.90
7694;DHT22;3889;48.162;11.510;2022-11-20T13:52:04;7.10;99.90
7694;DHT22;3889;48.162;11.510;2022-11-20T13:55:00;7.30;99.90
7694;DHT22;3889;48.162;11.510;2022-11-20T13:57:50;7.30;99.90
7694;DHT22;3889;48.162;11.510;2022-11-20T14:00:23;7.30;99.90
7694;DHT22;3889;48.162;11.510;2022-11-20T14:03:06;7.40;99.90
7694;DHT22;3889;48.162;11.510;2022-11-20T14:05:38;7.30;99.90
7694;DHT22;3889;48.162;11.510;2022-11-20T14:08:19;7.30;99.90
7694;DHT22;3889;48.162;11.510;2022-11-20T14:10:49;7.30;99.90
7694;DHT22;3889;48.162;11.510;2022-11-20T14:13:18;7.30;99.90
7694;DHT22;3889;48.162;11.510;2022-11-20T14:15:46;7.30;99.90
7694;DHT22;3889;48.162;11.510;2022-11-20T14:18:18;7.30;99.90
7694;DHT22;3889;48.162;11.510;2022-11-20T14:20:48;7.30;99.90
7694;DHT22;3889;48.162;11.510;2022-11-20T14:23:24;7.30;99.90
7694;DHT22;3889;48.162;11.510;2022-11-20T14:25:57;7.30;99.90
7694;DHT22;3889;48.162;11.510;2022-11-20T14:28:27;7.20;99.90
7694;DHT22;3889;48.162;11.510;2022-11-20T14:30:56;7.20;99.90
7694;DHT22;3889;48.162;11.510;2022-11-20T14:33:26;7.20;99.90
7694;DHT22;3889;48.162;11.510;2022-11-20T14:35:55;7.20;99.90
7694;DHT22;3889;48.162;11.510;2022-11-20T14:38:25;7.30;99.90
7694;DHT22;3889;48.162;11.510;2022-11-20T14:40:54;7.30;99.90
7694;DHT22;3889;48.162;11.510;2022-11-20T14:43:34;7.30;99.90
7694;DHT22;3889;48.162;11.510;2022-11-20T14:46:04;7.20;99.90
7694;DHT22;3889;48.162;11.510;2022-11-20T14:48:36;7.20;99.90
7694;DHT22;3889;48.162;11.510;2022-11-20T14:51:05;7.10;99.90
7694;DHT22;3889;48.162;11.510;2022-11-20T14:53:33;7.10;99.90
7694;DHT22;3889;48.162;11.510;2022-11-20T14:56:02;7.10;99.90
7694;DHT22;3889;48.162;11.510;2022-11-20T14:58:32;7.10;99.90
7694;DHT22;3889;48.162;11.510;2022-11-20T15:01:04;7.10;99.90
7694;DHT22;3889;48.162;11.510;2022-11-20T15:03:34;7.10;99.90
7694;DHT22;3889;48.162;11.510;2022-11-20T15:06:03;7.00;99.90
7694;DHT22;3889;48.162;11.510;2022-11-20T15:08:31;7.00;99.90
7694;DHT22;3889;48.162;11.510;2022-11-20T15:10:59;7.00;99.90
7694;DHT22;3889;48.162;11.510;2022-11-20T15:13:30;7.00;99.90
7694;DHT22;3889;48.162;11.510;2022-11-20T15:16:01;6.90;99.90
7694;DHT22;3889;48.162;11.510;2022-11-20T15:18:32;6.90;99.90
7694;DHT22;3889;48.162;11.510;2022-11-20T15:21:02;6.80;99.90
7694;DHT22;3889;48.162;11.510;2022-11-20T15:23:30;6.80;99.90
7694;DHT22;3889;48.162;11.510;2022-11-20T15:25:58;6.80;99.90
7694;DHT22;3889;48.162;11.510;2022-11-20T15:28:30;6.80;99.90
7694;DHT22;3889;48.162;11.510;2022-11-20T15:30:58;6.80;99.90
7694;DHT22;3889;48.162;11.510;2022-11-20T15:33:28;6.70;99.90
7694;DHT22;3889;48.162;11.510;2022-11-20T15:35:56;6.80;99.90
7694;DHT22;3889;48.162;11.510;2022-11-20T15:38:23;6.70;99.90
7694;DHT22;3889;48.162;11.510;2022-11-20T15:40:51;6.80;99.90
7694;DHT22;3889;48.162;11.510;2022-11-20T15:43:19;6.80;99.90
7694;DHT22;3889;48.162;11.510;2022-11-20T15:45:49;6.70;99.90
7694;DHT22;3889;48.162;11.510;2022-11-20T15:48:20;6.70;99.90
7694;DHT22;3889;48.162;11.510;2022-11-20T15:50:54;6.60;99.90
7694;DHT22;3889;48.162;11.510;2022-11-20T15:53:24;6.40;99.90
7694;DHT22;3889;48.162;11.510;2022-11-20T15:55:52;6.40;99.90
7694;DHT22;3889;48.162;11.510;2022-11-20T15:58:19;6.30;99.90
7694;DHT22;3889;48.162;11.510;2022-11-20T16:00:49;6.30;99.90
7694;DHT22;3889;48.162;11.510;2022-11-20T16:03:18;6.30;99.90
7694;DHT22;3889;48.162;11.510;2022-11-20T16:05:46;6.40;99.90
7694;DHT22;3889;48.162;11.510;2022-11-20T16:08:15;6.30;99.90
7694;DHT22;3889;48.162;11.510;2022-11-20T16:10:43;6.20;99.90
7694;DHT22;3889;48.162;11.510;2022-11-20T16:13:13;6.20;99.90
7694;DHT22;3889;48.162;11.510;2022-11-20T16:16:00;6.20;99.90
7694;DHT22;3889;48.162;11.510;2022-11-20T16:18:31;6.00;99.90
7694;DHT22;3889;48.162;11.510;2022-11-20T16:20:59;5.90;99.90
7694;DHT22;3889;48.162;11.510;2022-11-20T16:23:28;5.70;99.90
7694;DHT22;3889;48.162;11.510;2022-11-20T16:25:56;5.70;99.90
7694;DHT22;3889;48.162;11.510;2022-11-20T16:28:24;5.60;99.90
7694;DHT22;3889;48.162;11.510;2022-11-20T16:30:52;5.60;99.90
7694;DHT22;3889;48.162;11.510;2022-11-20T16:33:20;5.50;99.90